Time;durP1;ratioP1;P1;durP2;ratioP2;P2;SDS_P1;SDS_P2;PMS_P1;PMS_P2;Temp;Humidity;BMP_temperature;BMP_pressure;BME280_temperature;BME280_humidity;BME280_pressure;Samples;Min_cycle;Max_cycle;Signal;HPM_P1;HPM_P2
2022/03/04 00:00:56;;;;;;;27.55;16.77;;;;;;;1.28;63.97;101846.78;4973948;28;20027;-56
2022/03/04 00:03:21;;;;;;;26.77;17.80;;;;;;;1.27;63.93;101848.69;4973990;28;20490;-55
2022/03/04 00:05:47;;;;;;;26.48;17.15;;;;;;;1.24;64.42;101851.84;4956324;28;20046;-55
2022/03/04 00:08:12;;;;;;;28.10;17.25;;;;;;;1.23;64.42;101858.34;4973794;28;20663;-55
2022/03/04 00:10:38;;;;;;;27.63;17.25;;;;;;;1.17;64.90;101861.94;4973283;28;20043;-59
2022/03/04 00:13:03;;;;;;;27.05;16.58;;;;;;;1.14;64.87;101865.97;4956693;28;20034;-54
2022/03/04 00:15:29;;;;;;;27.55;17.23;;;;;;;1.11;65.18;101871.84;4973746;28;20378;-56
2022/03/04 00:17:55;;;;;;;28.35;17.08;;;;;;;1.06;65.28;101869.75;4973939;28;20049;-54
2022/03/04 00:20:20;;;;;;;27.20;16.55;;;;;;;0.99;64.92;101862.69;4973917;28;20106;-56
2022/03/04 00:22:46;;;;;;;27.38;16.77;;;;;;;0.93;65.54;101869.84;4955785;28;20106;-57
2022/03/04 00:25:12;;;;;;;28.80;17.58;;;;;;;0.91;65.93;101874.66;4973213;28;20089;-55
2022/03/04 00:27:37;;;;;;;26.13;16.75;;;;;;;0.85;66.02;101870.09;4973604;28;20110;-55
2022/03/04 00:30:04;;;;;;;26.95;16.17;;;;;;;0.81;65.88;101874.28;4955552;28;20027;-57
2022/03/04 00:32:29;;;;;;;28.55;16.92;;;;;;;0.73;66.41;101873.47;4955435;28;20442;-56
2022/03/04 00:34:54;;;;;;;27.50;17.02;;;;;;;0.66;66.93;101875.38;4973767;28;20110;-56
2022/03/04 00:37:20;;;;;;;28.23;17.75;;;;;;;0.65;66.74;101883.75;4973244;28;20030;-56
2022/03/04 00:39:45;;;;;;;27.25;17.42;;;;;;;0.59;66.82;101878.13;4973113;28;20029;-58
2022/03/04 00:42:11;;;;;;;27.25;17.23;;;;;;;0.54;66.90;101882.53;4974015;28;20030;-57
2022/03/04 00:44:36;;;;;;;27.83;17.48;;;;;;;0.56;67.24;101888.63;4978681;28;20518;-54
2022/03/04 00:47:01;;;;;;;29.15;17.73;;;;;;;0.54;67.50;101887.97;4979651;28;20027;-58
2022/03/04 00:49:27;;;;;;;29.17;17.42;;;;;;;0.51;67.39;101878.34;4979747;28;20038;-55
2022/03/04 00:51:52;;;;;;;29.63;17.88;;;;;;;0.50;67.18;101881.28;4979556;28;20034;-58
2022/03/04 00:54:18;;;;;;;26.85;17.13;;;;;;;0.45;67.19;101876.47;4980073;28;20034;-57
2022/03/04 00:56:43;;;;;;;29.38;17.60;;;;;;;0.44;67.35;101880.25;4979071;28;20031;-58
2022/03/04 00:59:08;;;;;;;28.23;17.98;;;;;;;0.42;67.86;101872.28;4980018;28;20085;-56
2022/03/04 01:01:34;;;;;;;27.33;17.17;;;;;;;0.42;67.54;101877.75;4979250;28;20411;-56
2022/03/04 01:03:59;;;;;;;28.50;17.52;;;;;;;0.39;67.68;101878.16;4979287;28;20035;-56
2022/03/04 01:06:24;;;;;;;26.80;16.88;;;;;;;0.37;67.98;101884.88;4979574;28;20031;-55
2022/03/04 01:08:50;;;;;;;28.65;18.05;;;;;;;0.35;67.73;101884.22;4978996;28;20037;-57
2022/03/04 01:11:15;;;;;;;28.30;17.65;;;;;;;0.33;68.16;101892.63;4979225;28;20475;-55
2022/03/04 01:13:40;;;;;;;27.92;16.83;;;;;;;0.30;68.19;101890.31;4979696;28;20023;-54
2022/03/04 01:16:06;;;;;;;27.90;16.90;;;;;;;0.28;68.61;101893.25;4979071;28;20073;-54
2022/03/04 01:18:31;;;;;;;27.27;16.65;;;;;;;0.25;68.52;101890.94;4978687;28;20119;-55
2022/03/04 01:20:56;;;;;;;28.50;18.63;;;;;;;0.22;68.57;101879.66;4979305;28;20041;-53
2022/03/04 01:23:22;;;;;;;29.23;17.83;;;;;;;0.19;68.36;101897.25;4961762;28;20113;-54
2022/03/04 01:25:47;;;;;;;29.13;18.20;;;;;;;0.17;68.59;101879.47;4978931;28;20035;-55
2022/03/04 01:28:13;;;;;;;27.77;17.25;;;;;;;0.12;68.46;101885.53;4978897;28;20162;-55
2022/03/04 01:30:38;;;;;;;28.65;18.65;;;;;;;0.10;68.88;101876.75;4961037;28;20426;-54
2022/03/04 01:33:03;;;;;;;31.85;18.60;;;;;;;0.06;69.65;101878.19;4978835;28;20057;-52
2022/03/04 01:35:29;;;;;;;30.52;17.95;;;;;;;0.03;69.18;101868.56;4961247;28;20510;-55
2022/03/04 01:37:54;;;;;;;30.70;18.33;;;;;;;-0.01;69.18;101876.31;4979253;28;20049;-52
2022/03/04 01:40:20;;;;;;;28.92;18.15;;;;;;;-0.05;69.56;101877.78;4978859;28;20027;-55
2022/03/04 01:42:45;;;;;;;28.80;19.10;;;;;;;-0.10;69.84;101876.75;4978839;28;20030;-54
2022/03/04 01:45:10;;;;;;;30.00;19.27;;;;;;;-0.14;69.62;101870.03;4978857;28;20146;-53
2022/03/04 01:47:40;;;;;;;29.10;18.58;;;;;;;-0.17;69.58;101872.13;4978198;28;20019;-53
2022/03/04 01:50:06;;;;;;;29.40;18.30;;;;;;;-0.21;70.23;101876.34;4978072;28;20046;-51
2022/03/04 01:52:31;;;;;;;29.77;18.95;;;;;;;-0.25;70.13;101880.50;4978128;28;20122;-54
2022/03/04 01:54:56;;;;;;;29.50;17.70;;;;;;;-0.26;70.58;101881.53;4977287;28;20378;-56
2022/03/04 01:57:22;;;;;;;29.13;19.20;;;;;;;-0.25;70.89;101882.41;4975868;28;20030;-56
2022/03/04 01:59:47;;;;;;;29.20;18.23;;;;;;;-0.27;70.32;101890.75;4975468;28;20124;-55
2022/03/04 02:02:12;;;;;;;31.85;18.95;;;;;;;-0.28;70.63;101883.63;4975448;28;20042;-56
2022/03/04 02:04:38;;;;;;;29.58;17.70;;;;;;;-0.26;70.61;101888.88;4975201;28;20102;-55
2022/03/04 02:07:03;;;;;;;28.35;18.27;;;;;;;-0.27;70.68;101884.47;4975426;28;20042;-55
2022/03/04 02:09:29;;;;;;;31.77;19.35;;;;;;;-0.29;70.56;101886.56;4975419;28;20165;-54
2022/03/04 02:11:55;;;;;;;29.35;18.02;;;;;;;-0.31;70.78;101886.78;4974851;28;20139;-54
2022/03/04 02:14:20;;;;;;;31.65;19.13;;;;;;;-0.34;70.35;101874.44;4975590;28;20541;-55
2022/03/04 02:16:48;;;;;;;30.52;19.13;;;;;;;-0.37;71.19;101880.28;4974888;28;20045;-55
2022/03/04 02:19:15;;;;;;;28.52;18.23;;;;;;;-0.39;71.24;101882.38;4974934;28;20530;-53
2022/03/04 02:21:56;;;;;;;29.40;19.10;;;;;;;-0.50;71.33;101870.22;4975282;28;20069;-55
2022/03/04 02:24:23;;;;;;;31.40;18.15;;;;;;;-0.47;71.36;101888.84;4975552;28;20348;-54
2022/03/04 02:26:50;;;;;;;31.63;18.23;;;;;;;-0.48;71.64;101887.19;4975488;28;20038;-54
2022/03/04 02:29:16;;;;;;;30.30;19.05;;;;;;;-0.50;71.25;101883.81;4975464;28;20023;-54
2022/03/04 02:31:42;;;;;;;31.83;19.35;;;;;;;-0.51;71.70;101884.00;4974782;28;20031;-53
2022/03/04 02:34:08;;;;;;;30.95;19.20;;;;;;;-0.56;71.58;101875.66;4975148;28;20023;-56
2022/03/04 02:36:33;;;;;;;30.65;19.02;;;;;;;-0.59;71.89;101873.34;4975304;28;20033;-53
2022/03/04 02:38:59;;;;;;;31.17;19.45;;;;;;;-0.59;72.04;101876.06;4974946;28;20030;-56
2022/03/04 02:41:24;;;;;;;30.05;18.60;;;;;;;-0.61;72.34;101875.44;4975013;28;20482;-54
2022/03/04 02:43:50;;;;;;;27.25;18.05;;;;;;;-0.66;72.79;101874.16;4974557;28;20494;-56
2022/03/04 02:46:15;;;;;;;29.70;19.38;;;;;;;-0.69;72.12;101874.56;4974269;28;20026;-55
2022/03/04 02:48:41;;;;;;;30.27;18.63;;;;;;;-0.69;72.76;101873.75;4974854;28;20031;-55
2022/03/04 02:51:07;;;;;;;30.02;18.02;;;;;;;-0.71;72.52;101873.09;4974503;28;20198;-56
2022/03/04 02:53:33;;;;;;;30.40;19.15;;;;;;;-0.76;72.98;101871.00;4974962;28;20498;-56
2022/03/04 02:55:58;;;;;;;32.10;20.00;;;;;;;-0.79;73.37;101877.69;4975130;28;20027;-56
2022/03/04 02:58:24;;;;;;;30.48;18.83;;;;;;;-0.81;73.20;101874.34;4974629;28;20437;-56
2022/03/04 03:00:49;;;;;;;29.67;19.00;;;;;;;-0.83;73.27;101873.69;4975137;28;20483;-55
2022/03/04 03:03:15;;;;;;;29.88;19.60;;;;;;;-0.85;73.71;101864.91;4974289;28;20490;-56
2022/03/04 03:05:40;;;;;;;30.30;18.58;;;;;;;-0.91;73.59;101860.31;4974427;28;20034;-56
2022/03/04 03:08:06;;;;;;;30.52;19.23;;;;;;;-0.90;73.58;101861.97;4974815;28;20045;-56
2022/03/04 03:10:32;;;;;;;32.13;19.65;;;;;;;-0.91;73.58;101868.44;4998089;23;20054;-52
2022/03/04 03:12:58;;;;;;;30.15;18.95;;;;;;;-0.94;73.51;101868.84;5013508;28;20037;-54
2022/03/04 03:15:23;;;;;;;28.58;18.92;;;;;;;-0.98;74.00;101873.84;5013415;28;20114;-55
2022/03/04 03:17:48;;;;;;;32.63;19.90;;;;;;;-0.99;74.24;101863.22;5013902;28;20388;-50
2022/03/04 03:20:14;;;;;;;30.45;19.90;;;;;;;-1.01;74.08;101871.56;5013295;28;20127;-54
2022/03/04 03:22:39;;;;;;;31.33;19.75;;;;;;;-1.01;73.81;101874.28;5014506;28;20029;-52
2022/03/04 03:25:05;;;;;;;31.80;18.92;;;;;;;-1.03;73.92;101875.50;5013524;28;20088;-54
2022/03/04 03:27:30;;;;;;;30.67;19.05;;;;;;;-1.02;74.44;101878.03;5013560;28;20061;-53
2022/03/04 03:29:55;;;;;;;35.00;20.25;;;;;;;-1.06;73.98;101876.75;5013314;28;20040;-53
2022/03/04 03:32:21;;;;;;;30.70;19.17;;;;;;;-1.07;74.73;101876.97;5013086;28;20030;-53
2022/03/04 03:34:46;;;;;;;32.45;20.55;;;;;;;-1.12;74.60;101875.69;5013345;28;20039;-52
2022/03/04 03:37:11;;;;;;;33.95;20.60;;;;;;;-1.13;74.51;101884.88;5013383;28;20029;-52
2022/03/04 03:39:37;;;;;;;33.67;20.33;;;;;;;-1.14;74.51;101885.09;5013556;28;20055;-53
2022/03/04 03:42:04;;;;;;;31.85;20.35;;;;;;;-1.18;75.18;101881.94;5013604;28;20033;-54
2022/03/04 03:44:30;;;;;;;31.98;19.63;;;;;;;-1.22;75.07;101887.97;5013806;28;20022;-53
2022/03/04 03:46:55;;;;;;;34.88;21.10;;;;;;;-1.24;75.17;101885.47;5012887;28;20109;-53
2022/03/04 03:49:21;;;;;;;33.08;19.80;;;;;;;-1.24;75.17;101890.03;5012972;28;20018;-53
2022/03/04 03:51:46;;;;;;;32.08;19.70;;;;;;;-1.26;75.02;101882.13;5013017;28;20374;-50
2022/03/04 03:54:12;;;;;;;31.48;19.63;;;;;;;-1.26;74.98;101888.38;5013614;28;20017;-52
2022/03/04 03:56:38;;;;;;;32.22;20.35;;;;;;;-1.30;74.88;101887.09;5012789;28;20451;-52
2022/03/04 03:59:03;;;;;;;34.15;20.17;;;;;;;-1.30;75.52;101878.09;5013726;28;20436;-52
2022/03/04 04:01:28;;;;;;;30.92;19.73;;;;;;;-1.29;75.22;101882.50;5013157;28;20108;-53
2022/03/04 04:03:54;;;;;;;29.63;19.33;;;;;;;-1.28;75.23;101879.59;5012849;28;20033;-53
2022/03/04 04:06:19;;;;;;;30.67;19.80;;;;;;;-1.29;75.76;101886.06;5012885;28;20068;-52
2022/03/04 04:08:44;;;;;;;34.28;20.70;;;;;;;-1.28;75.24;101892.31;5012645;28;20026;-51
2022/03/04 04:11:10;;;;;;;33.13;20.17;;;;;;;-1.28;75.65;101890.47;5012710;28;20054;-53
2022/03/04 04:13:35;;;;;;;32.20;21.02;;;;;;;-1.30;76.11;101897.97;5012985;28;20025;-52
2022/03/04 04:16:00;;;;;;;31.60;19.42;;;;;;;-1.31;75.66;101896.28;5012635;28;20066;-53
2022/03/04 04:18:26;;;;;;;33.10;20.45;;;;;;;-1.32;75.68;101902.75;5012123;28;20049;-54
2022/03/04 04:20:51;;;;;;;32.30;20.83;;;;;;;-1.34;76.11;101906.72;5012856;28;20029;-51
2022/03/04 04:23:16;;;;;;;32.60;20.17;;;;;;;-1.34;75.86;101899.41;5012484;28;20113;-53
2022/03/04 04:25:42;;;;;;;33.53;21.00;;;;;;;-1.34;76.17;101893.13;5012311;28;20268;-53
2022/03/04 04:28:07;;;;;;;31.67;20.50;;;;;;;-1.35;75.97;101902.31;5013029;28;20034;-51
2022/03/04 04:30:33;;;;;;;35.13;21.83;;;;;;;-1.50;75.95;101875.28;5012624;28;20038;-53
2022/03/04 04:32:58;;;;;;;34.15;21.00;;;;;;;-1.37;76.17;101890.81;5013002;28;20033;-53
2022/03/04 04:35:23;;;;;;;33.53;21.33;;;;;;;-1.37;76.35;101904.38;5012543;28;20100;-53
2022/03/04 04:37:49;;;;;;;33.70;20.98;;;;;;;-1.42;76.44;101894.97;5012465;28;20026;-52
2022/03/04 04:40:15;;;;;;;35.17;21.55;;;;;;;-1.37;76.86;101901.69;5012876;28;20030;-53
2022/03/04 04:42:41;;;;;;;34.72;21.80;;;;;;;-1.38;77.03;101897.28;5012553;28;20030;-54
2022/03/04 04:45:08;;;;;;;33.70;20.52;;;;;;;-1.38;77.15;101902.72;5012493;28;20132;-53
2022/03/04 04:47:34;;;;;;;34.88;22.02;;;;;;;-1.42;77.03;101902.28;4994936;28;20173;-54
2022/03/04 04:49:59;;;;;;;34.38;21.63;;;;;;;-1.46;77.06;101906.41;5013220;28;20034;-54
2022/03/04 04:52:24;;;;;;;33.47;22.15;;;;;;;-1.46;76.37;101909.97;5012650;28;20026;-54
2022/03/04 04:54:49;;;;;;;34.55;21.23;;;;;;;-1.49;76.81;101899.50;5012151;28;20033;-55
2022/03/04 04:57:15;;;;;;;33.10;20.65;;;;;;;-1.53;77.00;101900.97;5012152;28;20484;-52
2022/03/04 04:59:40;;;;;;;31.92;20.40;;;;;;;-1.54;77.05;101901.16;5011501;28;20034;-55
2022/03/04 05:02:06;;;;;;;33.38;20.83;;;;;;;-1.55;76.70;101899.47;5012794;28;20030;-54
2022/03/04 05:04:31;;;;;;;34.00;22.35;;;;;;;-1.58;77.12;101903.44;5012346;28;20041;-55
2022/03/04 05:06:56;;;;;;;35.60;20.98;;;;;;;-1.58;77.68;101908.84;5012305;28;20045;-54
2022/03/04 05:09:22;;;;;;;31.45;20.85;;;;;;;-1.61;77.79;101904.66;5012559;28;20042;-55
2022/03/04 05:11:47;;;;;;;34.15;22.00;;;;;;;-1.62;77.51;101908.41;5012042;28;20057;-55
2022/03/04 05:14:12;;;;;;;33.63;21.73;;;;;;;-1.65;77.09;101906.09;5011859;28;20041;-53
2022/03/04 05:16:38;;;;;;;33.28;22.63;;;;;;;-1.66;77.87;101904.44;4994186;28;20458;-55
2022/03/04 05:19:03;;;;;;;35.30;22.63;;;;;;;-1.68;77.84;101902.94;5012165;28;20073;-55
2022/03/04 05:21:29;;;;;;;34.33;22.15;;;;;;;-1.69;78.03;101903.97;5012122;28;20045;-54
2022/03/04 05:24:00;;;;;;;32.90;21.00;;;;;;;-1.71;77.90;101901.47;5012045;28;20034;-55
2022/03/04 05:26:45;;;;;;;35.10;22.17;;;;;;;-1.70;78.42;101902.31;5011878;28;20462;-54
2022/03/04 05:29:12;;;;;;;35.72;21.63;;;;;;;-1.71;78.46;101906.06;5012264;28;20524;-50
2022/03/04 05:31:39;;;;;;;35.63;22.17;;;;;;;-1.70;78.27;101903.16;5015510;28;20045;-53
2022/03/04 05:34:06;;;;;;;33.85;21.75;;;;;;;-1.71;78.27;101900.63;5016334;28;20033;-51
2022/03/04 05:36:32;;;;;;;34.90;20.83;;;;;;;-1.69;78.26;101906.69;5015861;28;20025;-54
2022/03/04 05:38:58;;;;;;;36.40;22.23;;;;;;;-1.68;78.64;101905.66;5015571;28;20099;-53
2022/03/04 05:41:24;;;;;;;36.10;22.88;;;;;;;-1.67;78.16;101904.63;5015788;28;20029;-53
2022/03/04 05:43:49;;;;;;;34.95;22.25;;;;;;;-1.67;78.50;101910.03;5015654;28;20057;-54
2022/03/04 05:46:15;;;;;;;35.88;22.70;;;;;;;-1.67;78.48;101913.63;5015567;28;20112;-53
2022/03/04 05:48:41;;;;;;;36.75;22.13;;;;;;;-1.67;78.22;101918.19;5015215;28;20025;-52
2022/03/04 05:51:07;;;;;;;34.63;22.73;;;;;;;-1.68;77.74;101917.34;5015104;28;20124;-54
2022/03/04 05:53:33;;;;;;;36.95;23.15;;;;;;;-1.67;78.49;101923.59;5015197;28;20030;-55
2022/03/04 05:56:05;;;;;;;34.97;22.42;;;;;;;-1.70;78.22;101924.03;5015122;28;20041;-52
2022/03/04 05:58:31;;;;;;;36.03;21.92;;;;;;;-1.71;78.68;101927.78;5015739;28;20112;-51
2022/03/04 06:00:56;;;;;;;36.15;22.65;;;;;;;-1.63;78.11;101928.44;5015534;28;20109;-54
2022/03/04 06:03:21;;;;;;;35.53;22.95;;;;;;;-1.63;78.45;101935.75;5015172;28;20083;-52
2022/03/04 06:05:47;;;;;;;33.50;21.55;;;;;;;-1.61;78.34;101942.66;5015159;28;20042;-53
2022/03/04 06:08:12;;;;;;;35.80;22.52;;;;;;;-1.59;78.45;101940.59;5015358;28;20081;-52
2022/03/04 06:10:37;;;;;;;35.88;22.92;;;;;;;-1.57;77.92;101945.81;5014220;28;20068;-50
2022/03/04 06:13:03;;;;;;;34.05;22.30;;;;;;;-1.58;78.41;101946.84;5015197;28;20029;-53
2022/03/04 06:15:28;;;;;;;36.38;21.92;;;;;;;-1.57;78.34;101946.66;5014837;28;20124;-54
2022/03/04 06:17:54;;;;;;;34.75;23.23;;;;;;;-1.59;78.76;101943.31;5015314;28;20061;-54
2022/03/04 06:20:19;;;;;;;37.47;22.88;;;;;;;-1.59;78.41;101940.59;5014242;28;20026;-53
2022/03/04 06:22:45;;;;;;;36.47;23.55;;;;;;;-1.60;78.56;101943.47;5014673;28;20466;-52
2022/03/04 06:25:12;;;;;;;35.85;22.73;;;;;;;-1.63;79.19;101944.72;5014014;28;20038;-53
2022/03/04 06:27:39;;;;;;;40.28;25.52;;;;;;;-1.61;79.16;101958.13;5014215;28;20061;-53
2022/03/04 06:30:05;;;;;;;37.30;23.63;;;;;;;-1.62;78.83;101951.84;5014197;28;20100;-55
2022/03/04 06:32:30;;;;;;;35.92;23.35;;;;;;;-1.62;79.02;101946.41;5014214;28;20044;-55
2022/03/04 06:34:57;;;;;;;34.78;22.48;;;;;;;-1.62;78.95;101951.84;5014642;28;20022;-54
2022/03/04 06:37:22;;;;;;;36.90;22.88;;;;;;;-1.62;79.50;101951.84;5014540;28;20030;-54
2022/03/04 06:39:48;;;;;;;33.95;22.67;;;;;;;-1.61;79.29;101958.13;5014197;28;20042;-53
2022/03/04 06:42:14;;;;;;;35.88;22.50;;;;;;;-1.58;79.50;101952.28;5013504;28;20030;-54
2022/03/04 06:44:39;;;;;;;35.50;21.63;;;;;;;-1.57;79.12;101954.81;5014443;28;20025;-54
2022/03/04 06:47:04;;;;;;;37.13;23.60;;;;;;;-1.58;79.67;101955.84;5014823;28;20109;-54
2022/03/04 06:49:29;;;;;;;36.00;22.65;;;;;;;-1.53;79.29;101962.53;5014685;28;20026;-55
2022/03/04 06:51:55;;;;;;;38.22;22.60;;;;;;;-1.52;79.81;101966.94;5014586;28;20036;-51
2022/03/04 06:54:20;;;;;;;38.72;23.27;;;;;;;-1.49;79.56;101971.97;5014708;28;20111;-50
2022/03/04 06:56:46;;;;;;;35.70;23.70;;;;;;;-1.48;79.92;101976.38;5014944;28;20026;-52
2022/03/04 06:59:11;;;;;;;38.10;23.20;;;;;;;-1.46;79.72;101969.69;5014586;28;20442;-54
2022/03/04 07:01:36;;;;;;;35.05;23.27;;;;;;;-1.41;79.40;101977.25;5014607;28;20529;-51
2022/03/04 07:04:01;;;;;;;37.85;24.40;;;;;;;-1.36;79.76;101985.63;5014762;28;20076;-54
2022/03/04 07:06:27;;;;;;;36.08;22.50;;;;;;;-1.31;79.57;101982.31;5010830;28;20049;-54
2022/03/04 07:08:52;;;;;;;37.28;23.92;;;;;;;-1.29;79.97;101983.81;5011595;28;20022;-53
2022/03/04 07:11:17;;;;;;;39.10;24.20;;;;;;;-1.24;79.51;101993.22;4994566;28;20057;-54
2022/03/04 07:13:42;;;;;;;39.80;23.48;;;;;;;-1.22;79.59;101989.25;5012545;28;20040;-55
2022/03/04 07:16:09;;;;;;;41.35;24.25;;;;;;;-1.16;79.38;101995.78;5012090;28;20065;-54
2022/03/04 07:18:34;;;;;;;36.35;22.52;;;;;;;-1.12;79.47;101995.19;5012186;28;20171;-53
2022/03/04 07:20:59;;;;;;;36.00;22.90;;;;;;;-1.07;79.04;102000.00;5012655;28;20509;-54
2022/03/04 07:23:25;;;;;;;37.17;23.23;;;;;;;-1.03;79.36;102001.31;5011976;28;20037;-54
2022/03/04 07:25:51;;;;;;;39.55;24.13;;;;;;;-0.98;79.57;101998.81;5010305;28;20512;-54
2022/03/04 07:28:16;;;;;;;39.72;23.95;;;;;;;-0.92;79.29;102007.22;5011936;28;20117;-52
2022/03/04 07:30:42;;;;;;;38.78;24.45;;;;;;;-0.85;78.74;102008.91;5012216;28;20549;-54
2022/03/04 07:33:08;;;;;;;36.88;23.02;;;;;;;-0.79;78.65;101999.13;5011688;28;20060;-54
2022/03/04 07:35:33;;;;;;;37.75;23.38;;;;;;;-0.73;78.42;102009.19;5011899;28;20030;-54
2022/03/04 07:37:59;;;;;;;35.65;23.63;;;;;;;-0.68;78.55;102006.69;5011899;28;20061;-54
2022/03/04 07:40:24;;;;;;;35.72;23.15;;;;;;;-0.62;78.19;102013.22;5011779;28;20447;-54
2022/03/04 07:42:49;;;;;;;39.80;24.02;;;;;;;-0.58;78.27;102014.50;5011661;28;20153;-51
2022/03/04 07:45:15;;;;;;;38.03;25.30;;;;;;;-0.52;77.78;102010.97;5011926;28;20385;-53
2022/03/04 07:47:41;;;;;;;36.53;23.13;;;;;;;-0.45;77.55;102011.00;5011895;28;20054;-54
2022/03/04 07:50:10;;;;;;;39.67;25.17;;;;;;;-0.43;77.62;102006.19;5011467;28;20526;-54
2022/03/04 07:52:36;;;;;;;36.55;22.92;;;;;;;-0.33;77.53;102011.22;5011396;28;20489;-56
2022/03/04 07:55:03;;;;;;;37.83;23.42;;;;;;;-0.31;77.60;101998.28;5011581;28;20040;-57
2022/03/04 07:57:28;;;;;;;35.88;21.92;;;;;;;-0.20;76.88;102008.56;5011811;28;20042;-55
2022/03/04 07:59:53;;;;;;;39.08;23.50;;;;;;;-0.11;77.00;102003.75;4994167;28;20393;-54
2022/03/04 08:02:19;;;;;;;40.97;24.75;;;;;;;-0.06;76.87;102006.72;5011394;28;20432;-54
2022/03/04 08:04:45;;;;;;;38.47;23.40;;;;;;;0.04;75.75;102013.63;5011508;28;20101;-54
2022/03/04 08:07:10;;;;;;;37.20;22.20;;;;;;;0.09;76.40;102011.97;5011092;28;20077;-53
2022/03/04 08:09:36;;;;;;;38.45;24.63;;;;;;;0.16;75.82;102017.41;5011239;28;20046;-54
2022/03/04 08:12:01;;;;;;;35.88;23.42;;;;;;;0.24;75.20;102016.38;5005312;28;20117;-52
2022/03/04 08:14:27;;;;;;;35.92;21.73;;;;;;;0.31;75.14;102019.94;4986252;28;20393;-54
2022/03/04 08:16:52;;;;;;;38.47;23.27;;;;;;;0.37;75.20;102023.69;4991532;28;20080;-54
2022/03/04 08:19:17;;;;;;;34.42;21.67;;;;;;;0.43;74.78;102023.72;5000211;28;20030;-53
2022/03/04 08:21:45;;;;;;;37.95;22.85;;;;;;;0.51;74.20;102019.09;5010793;28;20429;-55
2022/03/04 08:24:11;;;;;;;37.05;22.95;;;;;;;0.58;74.33;102020.78;4992174;28;20443;-54
2022/03/04 08:26:38;;;;;;;36.15;21.65;;;;;;;0.65;74.21;102022.66;5011057;28;20521;-54
2022/03/04 08:29:04;;;;;;;34.65;21.67;;;;;;;0.71;73.19;102019.09;5011229;28;20042;-53
2022/03/04 08:31:30;;;;;;;36.00;21.48;;;;;;;0.78;73.65;102028.94;5010854;28;20511;-55
2022/03/04 08:33:55;;;;;;;36.38;23.30;;;;;;;0.86;73.37;102027.03;5010536;28;20030;-54
2022/03/04 08:36:20;;;;;;;36.28;21.73;;;;;;;0.96;72.92;102032.88;5010846;28;20076;-54
2022/03/04 08:38:47;;;;;;;35.85;22.23;;;;;;;1.04;73.02;102034.56;5010928;28;20033;-55
2022/03/04 08:41:12;;;;;;;35.75;20.88;;;;;;;1.12;72.75;102038.94;5011064;28;20045;-55
2022/03/04 08:43:39;;;;;;;35.75;21.85;;;;;;;1.21;72.29;102046.66;5010761;28;20030;-54
2022/03/04 08:46:05;;;;;;;34.88;20.73;;;;;;;1.31;72.48;102042.66;5010938;28;20571;-52
2022/03/04 08:48:30;;;;;;;35.90;21.55;;;;;;;1.40;70.95;102041.38;5010766;28;20038;-55
2022/03/04 08:50:55;;;;;;;38.50;22.02;;;;;;;1.46;71.02;102039.66;5010345;28;20525;-55
2022/03/04 08:53:20;;;;;;;36.92;22.13;;;;;;;1.55;71.33;102057.47;5010934;28;20422;-54
2022/03/04 08:55:46;;;;;;;35.72;21.35;;;;;;;1.62;70.20;102043.81;5010834;28;20034;-55
2022/03/04 08:58:12;;;;;;;35.80;21.35;;;;;;;1.69;70.07;102052.78;5010681;28;20080;-55
2022/03/04 09:00:38;;;;;;;34.38;20.80;;;;;;;1.79;69.91;102052.34;5010548;28;20033;-52
2022/03/04 09:03:04;;;;;;;35.17;21.67;;;;;;;1.89;69.66;102055.41;5010620;28;20037;-51
2022/03/04 09:05:30;;;;;;;34.90;21.60;;;;;;;1.99;68.92;102050.31;5013427;28;20045;-52
2022/03/04 09:07:55;;;;;;;34.75;21.83;;;;;;;2.08;68.04;102050.91;5014869;28;20049;-53
2022/03/04 09:10:21;;;;;;;32.20;20.63;;;;;;;2.18;67.78;102051.28;5014381;28;20050;-54
2022/03/04 09:12:46;;;;;;;32.42;20.42;;;;;;;2.28;68.41;102050.78;5014479;28;20049;-53
2022/03/04 09:15:11;;;;;;;32.85;21.15;;;;;;;2.37;68.69;102056.81;5014465;28;20084;-53
2022/03/04 09:17:37;;;;;;;35.90;22.15;;;;;;;2.47;67.84;102046.25;5014182;28;20105;-54
2022/03/04 09:20:03;;;;;;;35.55;21.58;;;;;;;2.58;67.30;102047.41;5014480;28;20026;-53
2022/03/04 09:22:28;;;;;;;35.25;20.67;;;;;;;2.69;66.15;102043.13;5014195;28;20105;-53
2022/03/04 09:24:53;;;;;;;35.17;21.95;;;;;;;2.76;65.51;102032.97;5012705;28;20029;-55
2022/03/04 09:27:18;;;;;;;32.50;20.63;;;;;;;2.86;65.13;102031.63;5014242;28;20033;-54
2022/03/04 09:29:45;;;;;;;34.20;20.88;;;;;;;2.93;64.26;102024.19;5014315;28;20026;-54
2022/03/04 09:32:10;;;;;;;33.53;20.75;;;;;;;3.00;64.59;102024.13;5014211;28;20352;-55
2022/03/04 09:34:36;;;;;;;32.67;20.85;;;;;;;3.06;64.49;102024.06;5013036;28;20434;-54
2022/03/04 09:37:01;;;;;;;33.80;20.65;;;;;;;3.15;64.01;102010.09;5014258;28;20528;-54
2022/03/04 09:39:26;;;;;;;33.15;21.55;;;;;;;3.23;63.78;102016.06;5014220;28;20034;-53
2022/03/04 09:41:52;;;;;;;33.25;21.23;;;;;;;3.33;63.24;102012.81;5013947;28;20018;-53
2022/03/04 09:44:17;;;;;;;34.22;20.70;;;;;;;3.39;63.60;102005.59;5012340;28;20057;-56
2022/03/04 09:46:43;;;;;;;34.03;21.90;;;;;;;3.53;63.61;102015.31;5012382;28;20121;-52
2022/03/04 09:49:10;;;;;;;35.10;21.30;;;;;;;3.63;62.07;102014.78;5013336;28;20148;-55
2022/03/04 09:51:35;;;;;;;31.63;20.98;;;;;;;3.72;62.87;102012.53;5013581;28;20030;-55
2022/03/04 09:54:01;;;;;;;33.40;20.50;;;;;;;3.81;62.01;102021.28;5014151;28;20389;-53
2022/03/04 09:56:27;;;;;;;33.97;21.90;;;;;;;3.89;61.59;102031.91;5013979;28;20072;-55
2022/03/04 09:58:52;;;;;;;33.08;21.67;;;;;;;3.97;60.52;102026.09;5013727;28;20021;-54
2022/03/04 10:01:17;;;;;;;32.42;21.65;;;;;;;4.05;61.25;102030.41;5013831;28;20022;-56
2022/03/04 10:03:54;;;;;;;34.08;21.38;;;;;;;4.07;61.79;102028.25;5014162;28;20036;-55
2022/03/04 10:06:20;;;;;;;32.47;20.60;;;;;;;4.18;60.00;102027.47;5013994;28;20037;-54
2022/03/04 10:08:48;;;;;;;32.58;21.00;;;;;;;4.29;59.95;102025.00;5013610;28;20060;-55
2022/03/04 10:11:25;;;;;;;34.75;22.33;;;;;;;4.39;60.87;102032.66;5013370;28;20088;-55
2022/03/04 10:13:56;;;;;;;32.30;20.98;;;;;;;4.46;59.09;102025.16;5013827;28;20087;-53
2022/03/04 10:16:25;;;;;;;34.00;21.33;;;;;;;4.56;58.94;102028.16;5012063;28;20048;-53
2022/03/04 10:19:11;;;;;;;33.20;21.17;;;;;;;4.67;60.01;102026.47;5013565;28;20026;-51
2022/03/04 10:21:58;;;;;;;33.78;21.85;;;;;;;4.72;59.61;102026.63;5013576;28;20034;-51
2022/03/04 10:24:36;;;;;;;33.63;20.88;;;;;;;4.77;58.39;102018.50;5011716;28;20041;-55
2022/03/04 10:27:06;;;;;;;33.38;20.88;;;;;;;4.81;58.41;102027.06;5013246;28;20030;-52
2022/03/04 10:29:34;;;;;;;34.78;21.05;;;;;;;4.84;58.14;102019.22;5013468;28;20034;-57
2022/03/04 10:32:06;;;;;;;33.55;20.58;;;;;;;4.92;58.61;102019.91;5013319;28;20443;-56
2022/03/04 10:34:54;;;;;;;36.10;21.38;;;;;;;5.00;59.46;102014.09;5013192;28;20121;-55
2022/03/04 10:37:37;;;;;;;33.22;20.90;;;;;;;5.07;58.91;102011.19;5004847;28;20030;-56
2022/03/04 10:40:08;;;;;;;31.87;19.90;;;;;;;5.18;57.38;102017.75;5013318;28;20038;-55
2022/03/04 10:42:42;;;;;;;32.25;20.77;;;;;;;5.27;56.09;102022.63;5013142;28;20030;-54
2022/03/04 10:45:10;;;;;;;32.63;20.38;;;;;;;5.31;56.02;102018.34;5012784;28;20038;-54
2022/03/04 10:47:40;;;;;;;30.27;20.05;;;;;;;5.31;56.38;102009.25;5012633;28;20037;-56
2022/03/04 10:50:06;;;;;;;32.78;21.10;;;;;;;5.42;55.58;102027.59;5011488;28;20581;-54
2022/03/04 10:52:31;;;;;;;32.97;21.40;;;;;;;5.47;56.64;102022.25;5012844;28;20116;-56
2022/03/04 10:54:56;;;;;;;32.65;21.48;;;;;;;5.53;55.61;102023.16;5011276;28;20120;-55
2022/03/04 10:57:21;;;;;;;32.47;20.08;;;;;;;5.59;55.18;102019.47;5012452;28;20113;-56
2022/03/04 10:59:57;;;;;;;33.30;19.98;;;;;;;5.69;55.55;102020.75;5012650;28;20488;-56
2022/03/04 11:02:43;;;;;;;33.28;19.98;;;;;;;5.76;56.51;102018.69;5011993;28;20040;-56
2022/03/04 11:05:09;;;;;;;34.00;21.50;;;;;;;5.81;55.65;102013.28;5012455;28;20018;-57
2022/03/04 11:07:35;;;;;;;33.47;22.30;;;;;;;5.88;54.98;102015.88;5012299;28;20044;-56